sensor_id;sensor_type;location;lat;lon;timestamp;P1;durP1;ratioP1;P2;durP2;ratioP2
35312;SDS011;21425;50.454;30.466;2023-08-06T00:00:20;15.15;;;9.93;;
35312;SDS011;21425;50.454;30.466;2023-08-06T00:02:46;14.63;;;10.85;;
35312;SDS011;21425;50.454;30.466;2023-08-06T00:05:12;12.90;;;10.25;;
35312;SDS011;21425;50.454;30.466;2023-08-06T00:07:39;13.40;;;10.30;;
35312;SDS011;21425;50.454;30.466;2023-08-06T00:10:05;12.85;;;9.82;;
35312;SDS011;21425;50.454;30.466;2023-08-06T00:12:31;12.30;;;9.85;;
35312;SDS011;21425;50.454;30.466;2023-08-06T00:14:57;12.65;;;9.32;;
35312;SDS011;21425;50.454;30.466;2023-08-06T00:17:22;13.70;;;10.32;;
35312;SDS011;21425;50.454;30.466;2023-08-06T00:19:48;17.80;;;10.25;;
35312;SDS011;21425;50.454;30.466;2023-08-06T00:22:13;12.60;;;10.57;;
35312;SDS011;21425;50.454;30.466;2023-08-06T00:24:39;15.63;;;10.25;;
35312;SDS011;21425;50.454;30.466;2023-08-06T00:27:05;11.73;;;9.68;;
35312;SDS011;21425;50.454;30.466;2023-08-06T00:29:30;15.00;;;10.80;;
35312;SDS011;21425;50.454;30.466;2023-08-06T00:31:56;16.77;;;10.82;;
35312;SDS011;21425;50.454;30.466;2023-08-06T00:34:22;16.67;;;9.95;;
35312;SDS011;21425;50.454;30.466;2023-08-06T00:36:47;12.98;;;10.23;;
35312;SDS011;21425;50.454;30.466;2023-08-06T00:39:13;14.45;;;10.50;;
35312;SDS011;21425;50.454;30.466;2023-08-06T00:41:39;12.85;;;11.02;;
35312;SDS011;21425;50.454;30.466;2023-08-06T00:44:05;13.10;;;9.85;;
35312;SDS011;21425;50.454;30.466;2023-08-06T00:46:31;11.80;;;9.93;;
35312;SDS011;21425;50.454;30.466;2023-08-06T00:48:58;17.30;;;10.85;;
35312;SDS011;21425;50.454;30.466;2023-08-06T00:51:24;13.75;;;10.38;;
35312;SDS011;21425;50.454;30.466;2023-08-06T00:53:50;13.85;;;9.98;;
35312;SDS011;21425;50.454;30.466;2023-08-06T00:56:17;13.60;;;9.68;;
35312;SDS011;21425;50.454;30.466;2023-08-06T00:58:44;16.90;;;10.05;;
35312;SDS011;21425;50.454;30.466;2023-08-06T01:01:11;12.75;;;10.55;;
35312;SDS011;21425;50.454;30.466;2023-08-06T01:03:37;16.15;;;10.27;;
35312;SDS011;21425;50.454;30.466;2023-08-06T01:06:02;12.77;;;10.43;;
35312;SDS011;21425;50.454;30.466;2023-08-06T01:08:30;20.92;;;10.15;;
35312;SDS011;21425;50.454;30.466;2023-08-06T01:13:47;13.55;;;10.25;;
35312;SDS011;21425;50.454;30.466;2023-08-06T01:16:19;15.35;;;10.60;;
35312;SDS011;21425;50.454;30.466;2023-08-06T01:18:49;11.45;;;9.88;;
35312;SDS011;21425;50.454;30.466;2023-08-06T01:21:17;14.77;;;10.20;;
35312;SDS011;21425;50.454;30.466;2023-08-06T01:23:44;13.63;;;9.85;;
35312;SDS011;21425;50.454;30.466;2023-08-06T01:29:31;16.10;;;10.15;;
35312;SDS011;21425;50.454;30.466;2023-08-06T01:31:59;13.48;;;9.90;;
35312;SDS011;21425;50.454;30.466;2023-08-06T01:34:27;12.45;;;10.13;;
35312;SDS011;21425;50.454;30.466;2023-08-06T01:36:55;11.73;;;9.23;;
35312;SDS011;21425;50.454;30.466;2023-08-06T01:39:22;12.40;;;9.57;;
35312;SDS011;21425;50.454;30.466;2023-08-06T01:41:48;14.32;;;10.13;;
35312;SDS011;21425;50.454;30.466;2023-08-06T01:44:14;13.55;;;9.13;;
35312;SDS011;21425;50.454;30.466;2023-08-06T01:46:40;13.20;;;10.10;;
35312;SDS011;21425;50.454;30.466;2023-08-06T01:49:06;14.50;;;10.48;;
35312;SDS011;21425;50.454;30.466;2023-08-06T01:51:32;11.73;;;9.60;;
35312;SDS011;21425;50.454;30.466;2023-08-06T01:53:58;18.40;;;10.65;;
35312;SDS011;21425;50.454;30.466;2023-08-06T01:56:23;15.25;;;9.65;;
35312;SDS011;21425;50.454;30.466;2023-08-06T01:58:49;11.93;;;10.05;;
35312;SDS011;21425;50.454;30.466;2023-08-06T02:01:14;13.05;;;10.40;;
35312;SDS011;21425;50.454;30.466;2023-08-06T02:03:40;13.20;;;9.77;;
35312;SDS011;21425;50.454;30.466;2023-08-06T02:06:06;12.35;;;9.38;;
35312;SDS011;21425;50.454;30.466;2023-08-06T02:08:31;22.10;;;9.88;;
35312;SDS011;21425;50.454;30.466;2023-08-06T02:10:57;12.93;;;9.00;;
35312;SDS011;21425;50.454;30.466;2023-08-06T02:13:24;15.30;;;9.85;;
35312;SDS011;21425;50.454;30.466;2023-08-06T02:15:50;12.45;;;9.48;;
35312;SDS011;21425;50.454;30.466;2023-08-06T02:18:15;14.27;;;9.82;;
35312;SDS011;21425;50.454;30.466;2023-08-06T02:20:42;12.15;;;9.32;;
35312;SDS011;21425;50.454;30.466;2023-08-06T02:23:08;18.65;;;10.13;;
35312;SDS011;21425;50.454;30.466;2023-08-06T02:25:34;14.00;;;9.90;;
35312;SDS011;21425;50.454;30.466;2023-08-06T02:28:00;12.38;;;9.50;;
35312;SDS011;21425;50.454;30.466;2023-08-06T02:30:25;11.60;;;9.00;;
35312;SDS011;21425;50.454;30.466;2023-08-06T02:32:51;12.73;;;9.23;;
35312;SDS011;21425;50.454;30.466;2023-08-06T02:35:17;13.65;;;9.02;;
35312;SDS011;21425;50.454;30.466;2023-08-06T02:37:42;15.63;;;10.02;;
35312;SDS011;21425;50.454;30.466;2023-08-06T02:40:08;16.30;;;10.98;;
35312;SDS011;21425;50.454;30.466;2023-08-06T02:42:34;11.15;;;9.15;;
35312;SDS011;21425;50.454;30.466;2023-08-06T02:44:59;12.48;;;9.68;;
35312;SDS011;21425;50.454;30.466;2023-08-06T02:47:25;12.20;;;9.60;;
35312;SDS011;21425;50.454;30.466;2023-08-06T02:49:51;11.45;;;9.70;;
35312;SDS011;21425;50.454;30.466;2023-08-06T02:52:17;14.25;;;9.10;;
35312;SDS011;21425;50.454;30.466;2023-08-06T02:54:43;11.80;;;9.68;;
35312;SDS011;21425;50.454;30.466;2023-08-06T02:57:09;13.38;;;10.07;;
35312;SDS011;21425;50.454;30.466;2023-08-06T02:59:34;13.40;;;9.38;;
35312;SDS011;21425;50.454;30.466;2023-08-06T03:02:00;13.48;;;9.45;;
35312;SDS011;21425;50.454;30.466;2023-08-06T03:04:26;13.18;;;9.88;;
35312;SDS011;21425;50.454;30.466;2023-08-06T03:06:52;15.55;;;10.57;;
35312;SDS011;21425;50.454;30.466;2023-08-06T03:09:18;13.40;;;10.43;;
35312;SDS011;21425;50.454;30.466;2023-08-06T03:11:44;14.27;;;9.85;;
35312;SDS011;21425;50.454;30.466;2023-08-06T03:14:10;14.52;;;9.95;;
35312;SDS011;21425;50.454;30.466;2023-08-06T03:16:36;12.20;;;10.25;;
35312;SDS011;21425;50.454;30.466;2023-08-06T03:19:02;14.63;;;10.15;;
35312;SDS011;21425;50.454;30.466;2023-08-06T03:21:27;14.25;;;10.02;;
35312;SDS011;21425;50.454;30.466;2023-08-06T03:23:53;12.55;;;9.32;;
35312;SDS011;21425;50.454;30.466;2023-08-06T03:26:19;14.50;;;9.93;;
35312;SDS011;21425;50.454;30.466;2023-08-06T03:28:44;13.30;;;9.57;;
35312;SDS011;21425;50.454;30.466;2023-08-06T03:31:11;14.52;;;9.95;;
35312;SDS011;21425;50.454;30.466;2023-08-06T03:33:36;14.50;;;9.93;;
35312;SDS011;21425;50.454;30.466;2023-08-06T03:36:02;12.30;;;9.13;;
35312;SDS011;21425;50.454;30.466;2023-08-06T03:38:28;10.50;;;8.77;;
35312;SDS011;21425;50.454;30.466;2023-08-06T03:40:54;13.85;;;10.43;;
35312;SDS011;21425;50.454;30.466;2023-08-06T03:43:20;15.88;;;10.02;;
35312;SDS011;21425;50.454;30.466;2023-08-06T03:45:45;13.23;;;9.20;;
35312;SDS011;21425;50.454;30.466;2023-08-06T03:48:11;13.77;;;8.93;;
35312;SDS011;21425;50.454;30.466;2023-08-06T03:50:37;13.70;;;10.32;;
35312;SDS011;21425;50.454;30.466;2023-08-06T03:53:03;14.25;;;9.77;;
35312;SDS011;21425;50.454;30.466;2023-08-06T03:55:29;15.20;;;9.35;;
35312;SDS011;21425;50.454;30.466;2023-08-06T03:57:55;11.75;;;9.25;;
35312;SDS011;21425;50.454;30.466;2023-08-06T04:00:20;12.38;;;9.52;;
35312;SDS011;21425;50.454;30.466;2023-08-06T04:02:46;13.77;;;9.98;;
35312;SDS011;21425;50.454;30.466;2023-08-06T04:05:11;15.05;;;9.43;;
35312;SDS011;21425;50.454;30.466;2023-08-06T04:07:37;11.27;;;9.60;;
35312;SDS011;21425;50.454;30.466;2023-08-06T04:10:03;15.55;;;9.23;;
35312;SDS011;21425;50.454;30.466;2023-08-06T04:12:30;11.95;;;9.27;;
35312;SDS011;21425;50.454;30.466;2023-08-06T04:14:57;14.70;;;8.85;;
35312;SDS011;21425;50.454;30.466;2023-08-06T04:17:24;24.40;;;9.98;;
35312;SDS011;21425;50.454;30.466;2023-08-06T04:19:53;12.15;;;9.13;;
35312;SDS011;21425;50.454;30.466;2023-08-06T04:22:19;17.05;;;10.50;;
35312;SDS011;21425;50.454;30.466;2023-08-06T04:24:46;13.60;;;9.68;;
35312;SDS011;21425;50.454;30.466;2023-08-06T04:27:13;14.13;;;9.77;;
35312;SDS011;21425;50.454;30.466;2023-08-06T04:29:40;13.55;;;9.00;;
35312;SDS011;21425;50.454;30.466;2023-08-06T04:32:07;12.27;;;8.88;;
35312;SDS011;21425;50.454;30.466;2023-08-06T04:34:34;12.45;;;8.68;;
35312;SDS011;21425;50.454;30.466;2023-08-06T04:37:00;12.43;;;9.32;;
35312;SDS011;21425;50.454;30.466;2023-08-06T04:39:26;15.45;;;9.90;;
35312;SDS011;21425;50.454;30.466;2023-08-06T04:41:52;11.60;;;9.15;;
35312;SDS011;21425;50.454;30.466;2023-08-06T04:44:18;12.50;;;9.63;;
35312;SDS011;21425;50.454;30.466;2023-08-06T04:46:44;11.80;;;8.88;;
35312;SDS011;21425;50.454;30.466;2023-08-06T04:49:10;11.38;;;8.93;;
35312;SDS011;21425;50.454;30.466;2023-08-06T04:51:35;10.35;;;8.68;;
35312;SDS011;21425;50.454;30.466;2023-08-06T04:54:01;14.95;;;9.77;;
35312;SDS011;21425;50.454;30.466;2023-08-06T04:56:27;11.27;;;9.05;;
35312;SDS011;21425;50.454;30.466;2023-08-06T04:58:52;13.98;;;9.63;;
35312;SDS011;21425;50.454;30.466;2023-08-06T05:01:18;15.50;;;9.57;;
35312;SDS011;21425;50.454;30.466;2023-08-06T05:03:44;15.23;;;9.80;;
35312;SDS011;21425;50.454;30.466;2023-08-06T05:06:10;12.27;;;9.13;;
35312;SDS011;21425;50.454;30.466;2023-08-06T05:08:36;17.67;;;10.18;;
35312;SDS011;21425;50.454;30.466;2023-08-06T05:11:02;10.90;;;8.95;;
35312;SDS011;21425;50.454;30.466;2023-08-06T05:13:27;12.20;;;9.88;;
35312;SDS011;21425;50.454;30.466;2023-08-06T05:15:54;11.35;;;9.43;;
35312;SDS011;21425;50.454;30.466;2023-08-06T05:18:20;11.60;;;8.60;;
35312;SDS011;21425;50.454;30.466;2023-08-06T05:20:46;17.27;;;9.75;;
35312;SDS011;21425;50.454;30.466;2023-08-06T05:23:11;13.75;;;9.43;;
35312;SDS011;21425;50.454;30.466;2023-08-06T05:25:38;12.85;;;9.10;;
35312;SDS011;21425;50.454;30.466;2023-08-06T05:28:04;11.38;;;9.30;;
35312;SDS011;21425;50.454;30.466;2023-08-06T05:30:30;12.35;;;8.68;;
35312;SDS011;21425;50.454;30.466;2023-08-06T05:32:55;12.52;;;9.13;;
35312;SDS011;21425;50.454;30.466;2023-08-06T05:35:21;14.13;;;9.25;;
35312;SDS011;21425;50.454;30.466;2023-08-06T05:37:47;11.32;;;8.45;;
35312;SDS011;21425;50.454;30.466;2023-08-06T05:40:14;11.18;;;8.75;;
35312;SDS011;21425;50.454;30.466;2023-08-06T05:42:40;11.30;;;8.95;;
35312;SDS011;21425;50.454;30.466;2023-08-06T05:45:05;13.50;;;9.02;;
35312;SDS011;21425;50.454;30.466;2023-08-06T05:47:32;11.15;;;9.23;;
35312;SDS011;21425;50.454;30.466;2023-08-06T05:49:57;14.48;;;9.02;;
35312;SDS011;21425;50.454;30.466;2023-08-06T05:52:23;13.18;;;8.90;;
35312;SDS011;21425;50.454;30.466;2023-08-06T05:54:48;11.32;;;8.70;;
35312;SDS011;21425;50.454;30.466;2023-08-06T05:57:14;10.32;;;8.32;;
35312;SDS011;21425;50.454;30.466;2023-08-06T05:59:40;14.25;;;9.23;;
35312;SDS011;21425;50.454;30.466;2023-08-06T06:02:06;11.65;;;8.48;;
35312;SDS011;21425;50.454;30.466;2023-08-06T06:04:32;11.50;;;9.52;;
35312;SDS011;21425;50.454;30.466;2023-08-06T06:06:57;13.05;;;8.07;;
35312;SDS011;21425;50.454;30.466;2023-08-06T06:09:23;11.73;;;8.20;;
35312;SDS011;21425;50.454;30.466;2023-08-06T06:11:48;17.58;;;8.38;;
35312;SDS011;21425;50.454;30.466;2023-08-06T06:14:15;12.10;;;8.70;;
35312;SDS011;21425;50.454;30.466;2023-08-06T06:16:41;11.18;;;7.68;;
35312;SDS011;21425;50.454;30.466;2023-08-06T06:19:07;12.40;;;7.78;;
35312;SDS011;21425;50.454;30.466;2023-08-06T06:21:33;9.90;;;7.72;;
35312;SDS011;21425;50.454;30.466;2023-08-06T06:23:59;10.32;;;8.20;;
35312;SDS011;21425;50.454;30.466;2023-08-06T06:26:25;14.52;;;8.98;;
35312;SDS011;21425;50.454;30.466;2023-08-06T06:28:51;11.20;;;8.15;;
35312;SDS011;21425;50.454;30.466;2023-08-06T06:31:17;16.75;;;8.05;;
35312;SDS011;21425;50.454;30.466;2023-08-06T06:33:42;16.75;;;8.25;;
35312;SDS011;21425;50.454;30.466;2023-08-06T06:36:08;11.73;;;8.52;;
35312;SDS011;21425;50.454;30.466;2023-08-06T06:38:34;9.27;;;8.15;;
35312;SDS011;21425;50.454;30.466;2023-08-06T06:41:00;10.35;;;8.50;;
35312;SDS011;21425;50.454;30.466;2023-08-06T06:43:28;12.18;;;8.20;;
35312;SDS011;21425;50.454;30.466;2023-08-06T06:45:55;10.30;;;8.13;;
35312;SDS011;21425;50.454;30.466;2023-08-06T06:48:23;10.63;;;8.65;;
35312;SDS011;21425;50.454;30.466;2023-08-06T06:50:48;11.27;;;8.07;;
35312;SDS011;21425;50.454;30.466;2023-08-06T06:53:14;9.90;;;8.32;;
35312;SDS011;21425;50.454;30.466;2023-08-06T06:55:40;14.57;;;8.00;;
35312;SDS011;21425;50.454;30.466;2023-08-06T06:58:06;10.25;;;8.02;;
35312;SDS011;21425;50.454;30.466;2023-08-06T07:00:31;10.77;;;7.88;;
35312;SDS011;21425;50.454;30.466;2023-08-06T07:02:57;14.15;;;8.40;;
35312;SDS011;21425;50.454;30.466;2023-08-06T07:05:23;8.13;;;7.25;;
35312;SDS011;21425;50.454;30.466;2023-08-06T07:07:49;10.50;;;8.27;;
35312;SDS011;21425;50.454;30.466;2023-08-06T07:10:14;10.70;;;8.00;;
35312;SDS011;21425;50.454;30.466;2023-08-06T07:12:40;13.70;;;8.00;;
35312;SDS011;21425;50.454;30.466;2023-08-06T07:15:06;10.52;;;7.93;;
35312;SDS011;21425;50.454;30.466;2023-08-06T07:17:31;10.00;;;7.70;;
35312;SDS011;21425;50.454;30.466;2023-08-06T07:19:57;9.88;;;7.72;;
35312;SDS011;21425;50.454;30.466;2023-08-06T07:22:23;14.23;;;8.18;;
35312;SDS011;21425;50.454;30.466;2023-08-06T07:24:49;12.77;;;7.68;;
35312;SDS011;21425;50.454;30.466;2023-08-06T07:27:15;12.00;;;7.25;;
35312;SDS011;21425;50.454;30.466;2023-08-06T07:29:41;10.32;;;7.43;;
35312;SDS011;21425;50.454;30.466;2023-08-06T07:32:07;8.52;;;7.40;;
35312;SDS011;21425;50.454;30.466;2023-08-06T07:34:32;11.30;;;8.13;;
35312;SDS011;21425;50.454;30.466;2023-08-06T07:36:58;9.20;;;7.15;;
35312;SDS011;21425;50.454;30.466;2023-08-06T07:39:24;12.95;;;7.63;;
35312;SDS011;21425;50.454;30.466;2023-08-06T07:41:50;8.05;;;7.00;;
35312;SDS011;21425;50.454;30.466;2023-08-06T07:44:16;11.98;;;7.40;;
35312;SDS011;21425;50.454;30.466;2023-08-06T07:46:41;8.70;;;6.85;;
35312;SDS011;21425;50.454;30.466;2023-08-06T07:49:08;11.32;;;7.18;;
35312;SDS011;21425;50.454;30.466;2023-08-06T07:51:35;12.93;;;6.82;;
35312;SDS011;21425;50.454;30.466;2023-08-06T07:54:01;13.10;;;6.72;;
35312;SDS011;21425;50.454;30.466;2023-08-06T07:56:28;10.50;;;6.68;;
35312;SDS011;21425;50.454;30.466;2023-08-06T07:58:54;9.77;;;6.43;;
35312;SDS011;21425;50.454;30.466;2023-08-06T08:01:19;11.13;;;7.30;;
35312;SDS011;21425;50.454;30.466;2023-08-06T08:03:45;13.10;;;7.00;;
35312;SDS011;21425;50.454;30.466;2023-08-06T08:06:11;12.20;;;7.30;;
35312;SDS011;21425;50.454;30.466;2023-08-06T08:08:36;12.68;;;7.18;;
35312;SDS011;21425;50.454;30.466;2023-08-06T08:11:03;9.80;;;7.00;;
35312;SDS011;21425;50.454;30.466;2023-08-06T08:13:29;12.30;;;7.15;;
35312;SDS011;21425;50.454;30.466;2023-08-06T08:15:58;12.65;;;7.28;;
35312;SDS011;21425;50.454;30.466;2023-08-06T08:18:24;8.93;;;6.93;;
35312;SDS011;21425;50.454;30.466;2023-08-06T08:20:50;12.88;;;6.90;;
35312;SDS011;21425;50.454;30.466;2023-08-06T08:23:16;11.15;;;6.38;;
35312;SDS011;21425;50.454;30.466;2023-08-06T08:25:42;8.32;;;6.43;;
35312;SDS011;21425;50.454;30.466;2023-08-06T08:28:08;12.10;;;6.15;;
35312;SDS011;21425;50.454;30.466;2023-08-06T08:30:34;12.75;;;6.20;;
35312;SDS011;21425;50.454;30.466;2023-08-06T08:32:59;8.63;;;6.75;;
35312;SDS011;21425;50.454;30.466;2023-08-06T08:35:25;10.38;;;5.95;;
35312;SDS011;21425;50.454;30.466;2023-08-06T08:37:51;11.35;;;6.80;;
35312;SDS011;21425;50.454;30.466;2023-08-06T08:40:17;8.38;;;6.43;;
35312;SDS011;21425;50.454;30.466;2023-08-06T08:42:43;11.75;;;6.85;;
35312;SDS011;21425;50.454;30.466;2023-08-06T08:45:13;9.38;;;6.70;;
35312;SDS011;21425;50.454;30.466;2023-08-06T08:47:40;14.10;;;7.38;;
35312;SDS011;21425;50.454;30.466;2023-08-06T08:50:07;9.05;;;6.88;;
35312;SDS011;21425;50.454;30.466;2023-08-06T08:52:34;9.30;;;7.40;;
35312;SDS011;21425;50.454;30.466;2023-08-06T08:55:01;10.63;;;7.28;;
35312;SDS011;21425;50.454;30.466;2023-08-06T08:57:27;12.95;;;6.80;;
35312;SDS011;21425;50.454;30.466;2023-08-06T08:59:53;12.77;;;6.80;;
35312;SDS011;21425;50.454;30.466;2023-08-06T09:02:18;10.75;;;6.95;;
35312;SDS011;21425;50.454;30.466;2023-08-06T09:04:47;12.50;;;7.15;;
35312;SDS011;21425;50.454;30.466;2023-08-06T09:07:14;9.73;;;6.97;;
35312;SDS011;21425;50.454;30.466;2023-08-06T09:09:43;11.80;;;7.45;;
35312;SDS011;21425;50.454;30.466;2023-08-06T09:12:16;10.70;;;7.53;;
35312;SDS011;21425;50.454;30.466;2023-08-06T09:14:42;9.82;;;7.55;;
35312;SDS011;21425;50.454;30.466;2023-08-06T09:17:09;8.50;;;6.65;;
35312;SDS011;21425;50.454;30.466;2023-08-06T09:19:37;9.25;;;7.22;;
35312;SDS011;21425;50.454;30.466;2023-08-06T09:22:11;9.07;;;6.72;;
35312;SDS011;21425;50.454;30.466;2023-08-06T09:24:39;8.55;;;7.00;;
35312;SDS011;21425;50.454;30.466;2023-08-06T09:27:10;12.35;;;7.05;;
35312;SDS011;21425;50.454;30.466;2023-08-06T09:29:39;7.85;;;6.53;;
35312;SDS011;21425;50.454;30.466;2023-08-06T09:32:05;12.75;;;7.10;;
35312;SDS011;21425;50.454;30.466;2023-08-06T09:34:31;11.38;;;6.38;;
35312;SDS011;21425;50.454;30.466;2023-08-06T09:36:57;10.15;;;7.25;;
35312;SDS011;21425;50.454;30.466;2023-08-06T09:39:29;10.88;;;6.97;;
35312;SDS011;21425;50.454;30.466;2023-08-06T09:41:56;11.68;;;6.80;;
35312;SDS011;21425;50.454;30.466;2023-08-06T09:44:24;10.20;;;6.30;;
35312;SDS011;21425;50.454;30.466;2023-08-06T09:46:52;11.15;;;7.25;;
35312;SDS011;21425;50.454;30.466;2023-08-06T09:49:20;15.18;;;6.95;;
35312;SDS011;21425;50.454;30.466;2023-08-06T09:51:46;11.68;;;6.60;;
35312;SDS011;21425;50.454;30.466;2023-08-06T09:54:16;11.50;;;7.15;;
35312;SDS011;21425;50.454;30.466;2023-08-06T09:56:43;11.80;;;6.60;;
35312;SDS011;21425;50.454;30.466;2023-08-06T09:59:09;12.02;;;7.70;;
35312;SDS011;21425;50.454;30.466;2023-08-06T10:01:36;19.17;;;7.72;;
35312;SDS011;21425;50.454;30.466;2023-08-06T10:04:03;19.08;;;7.47;;
35312;SDS011;21425;50.454;30.466;2023-08-06T10:06:31;12.77;;;6.97;;
35312;SDS011;21425;50.454;30.466;2023-08-06T10:08:59;10.95;;;6.40;;
35312;SDS011;21425;50.454;30.466;2023-08-06T10:11:25;12.68;;;7.47;;
35312;SDS011;21425;50.454;30.466;2023-08-06T10:13:55;8.68;;;6.40;;
35312;SDS011;21425;50.454;30.466;2023-08-06T10:16:41;9.45;;;6.25;;
35312;SDS011;21425;50.454;30.466;2023-08-06T10:19:09;11.25;;;6.20;;
35312;SDS011;21425;50.454;30.466;2023-08-06T10:21:40;7.60;;;5.97;;
35312;SDS011;21425;50.454;30.466;2023-08-06T10:24:08;8.48;;;6.38;;
35312;SDS011;21425;50.454;30.466;2023-08-06T10:26:37;10.60;;;6.90;;
35312;SDS011;21425;50.454;30.466;2023-08-06T10:29:34;13.63;;;6.28;;
35312;SDS011;21425;50.454;30.466;2023-08-06T10:32:02;10.85;;;6.38;;
35312;SDS011;21425;50.454;30.466;2023-08-06T10:37:34;12.45;;;6.35;;
35312;SDS011;21425;50.454;30.466;2023-08-06T10:40:01;7.50;;;5.78;;
35312;SDS011;21425;50.454;30.466;2023-08-06T10:42:28;10.80;;;6.15;;
35312;SDS011;21425;50.454;30.466;2023-08-06T10:47:40;10.98;;;5.63;;
35312;SDS011;21425;50.454;30.466;2023-08-06T10:50:07;9.32;;;5.80;;
35312;SDS011;21425;50.454;30.466;2023-08-06T10:52:34;10.25;;;6.13;;
35312;SDS011;21425;50.454;30.466;2023-08-06T10:55:00;11.00;;;5.45;;
35312;SDS011;21425;50.454;30.466;2023-08-06T10:57:25;10.85;;;5.05;;
35312;SDS011;21425;50.454;30.466;2023-08-06T10:59:51;8.27;;;5.78;;
35312;SDS011;21425;50.454;30.466;2023-08-06T11:02:16;17.83;;;6.65;;
35312;SDS011;21425;50.454;30.466;2023-08-06T11:04:42;8.93;;;5.72;;
35312;SDS011;21425;50.454;30.466;2023-08-06T11:07:08;8.07;;;5.25;;
35312;SDS011;21425;50.454;30.466;2023-08-06T11:09:34;11.95;;;5.63;;
35312;SDS011;21425;50.454;30.466;2023-08-06T11:12:00;9.98;;;5.60;;
35312;SDS011;21425;50.454;30.466;2023-08-06T11:14:26;12.70;;;7.00;;
35312;SDS011;21425;50.454;30.466;2023-08-06T11:16:52;9.88;;;5.35;;
35312;SDS011;21425;50.454;30.466;2023-08-06T11:19:19;8.02;;;5.60;;
35312;SDS011;21425;50.454;30.466;2023-08-06T11:21:45;7.53;;;4.93;;
35312;SDS011;21425;50.454;30.466;2023-08-06T11:24:12;7.82;;;4.60;;
35312;SDS011;21425;50.454;30.466;2023-08-06T11:26:38;10.10;;;5.13;;
35312;SDS011;21425;50.454;30.466;2023-08-06T11:29:05;8.90;;;5.22;;
35312;SDS011;21425;50.454;30.466;2023-08-06T11:31:30;8.45;;;5.05;;
35312;SDS011;21425;50.454;30.466;2023-08-06T11:33:56;8.98;;;5.35;;
35312;SDS011;21425;50.454;30.466;2023-08-06T11:36:32;6.80;;;5.10;;
35312;SDS011;21425;50.454;30.466;2023-08-06T11:38:59;8.27;;;5.00;;
35312;SDS011;21425;50.454;30.466;2023-08-06T11:41:30;10.43;;;6.10;;
35312;SDS011;21425;50.454;30.466;2023-08-06T11:43:55;9.00;;;5.07;;
35312;SDS011;21425;50.454;30.466;2023-08-06T11:46:21;11.93;;;5.22;;
35312;SDS011;21425;50.454;30.466;2023-08-06T11:48:51;10.65;;;5.30;;
35312;SDS011;21425;50.454;30.466;2023-08-06T11:51:17;11.32;;;4.70;;
35312;SDS011;21425;50.454;30.466;2023-08-06T11:53:48;8.73;;;4.93;;
35312;SDS011;21425;50.454;30.466;2023-08-06T11:56:14;8.45;;;5.65;;
35312;SDS011;21425;50.454;30.466;2023-08-06T11:58:43;7.03;;;5.00;;
35312;SDS011;21425;50.454;30.466;2023-08-06T12:01:10;14.60;;;5.70;;
35312;SDS011;21425;50.454;30.466;2023-08-06T12:03:42;14.70;;;5.25;;
35312;SDS011;21425;50.454;30.466;2023-08-06T12:06:08;6.50;;;4.87;;
35312;SDS011;21425;50.454;30.466;2023-08-06T12:08:33;11.18;;;4.70;;
35312;SDS011;21425;50.454;30.466;2023-08-06T12:10:59;10.93;;;4.93;;
35312;SDS011;21425;50.454;30.466;2023-08-06T12:13:25;5.78;;;4.75;;
35312;SDS011;21425;50.454;30.466;2023-08-06T12:15:51;13.85;;;4.32;;
35312;SDS011;21425;50.454;30.466;2023-08-06T12:18:22;9.20;;;4.53;;
35312;SDS011;21425;50.454;30.466;2023-08-06T12:20:48;11.93;;;5.15;;
35312;SDS011;21425;50.454;30.466;2023-08-06T12:23:13;6.82;;;4.60;;
35312;SDS011;21425;50.454;30.466;2023-08-06T12:25:40;10.63;;;4.53;;
35312;SDS011;21425;50.454;30.466;2023-08-06T12:28:06;11.10;;;4.25;;
35312;SDS011;21425;50.454;30.466;2023-08-06T12:30:33;10.80;;;4.65;;
35312;SDS011;21425;50.454;30.466;2023-08-06T12:32:59;7.38;;;4.10;;
35312;SDS011;21425;50.454;30.466;2023-08-06T12:35:25;10.25;;;4.35;;
35312;SDS011;21425;50.454;30.466;2023-08-06T12:37:51;12.73;;;4.32;;
35312;SDS011;21425;50.454;30.466;2023-08-06T12:40:19;8.73;;;4.03;;
35312;SDS011;21425;50.454;30.466;2023-08-06T12:42:45;16.88;;;4.72;;
35312;SDS011;21425;50.454;30.466;2023-08-06T12:45:11;9.57;;;3.75;;
35312;SDS011;21425;50.454;30.466;2023-08-06T12:47:37;13.25;;;4.32;;
35312;SDS011;21425;50.454;30.466;2023-08-06T12:50:03;12.05;;;4.90;;
35312;SDS011;21425;50.454;30.466;2023-08-06T12:52:29;12.38;;;4.53;;
35312;SDS011;21425;50.454;30.466;2023-08-06T12:54:54;8.13;;;4.20;;
35312;SDS011;21425;50.454;30.466;2023-08-06T12:57:20;5.97;;;4.07;;
35312;SDS011;21425;50.454;30.466;2023-08-06T12:59:46;8.32;;;4.57;;
35312;SDS011;21425;50.454;30.466;2023-08-06T13:02:11;12.52;;;4.60;;
35312;SDS011;21425;50.454;30.466;2023-08-06T13:04:37;10.10;;;4.45;;
35312;SDS011;21425;50.454;30.466;2023-08-06T13:07:02;10.10;;;4.07;;
35312;SDS011;21425;50.454;30.466;2023-08-06T13:09:28;7.82;;;4.47;;
35312;SDS011;21425;50.454;30.466;2023-08-06T13:11:54;7.22;;;4.18;;
35312;SDS011;21425;50.454;30.466;2023-08-06T13:14:20;8.45;;;4.25;;
35312;SDS011;21425;50.454;30.466;2023-08-06T13:16:46;10.68;;;4.82;;
35312;SDS011;21425;50.454;30.466;2023-08-06T13:19:12;5.80;;;4.10;;
35312;SDS011;21425;50.454;30.466;2023-08-06T13:24:06;7.90;;;4.13;;
35312;SDS011;21425;50.454;30.466;2023-08-06T13:26:34;10.73;;;4.38;;
35312;SDS011;21425;50.454;30.466;2023-08-06T13:29:01;9.85;;;4.57;;
35312;SDS011;21425;50.454;30.466;2023-08-06T13:31:28;5.90;;;3.85;;
35312;SDS011;21425;50.454;30.466;2023-08-06T13:33:54;7.55;;;4.57;;
35312;SDS011;21425;50.454;30.466;2023-08-06T13:36:20;7.70;;;4.13;;
35312;SDS011;21425;50.454;30.466;2023-08-06T13:38:46;8.20;;;4.28;;
35312;SDS011;21425;50.454;30.466;2023-08-06T13:41:12;9.65;;;4.38;;
35312;SDS011;21425;50.454;30.466;2023-08-06T13:43:38;11.00;;;3.75;;
35312;SDS011;21425;50.454;30.466;2023-08-06T13:46:04;7.63;;;4.50;;
35312;SDS011;21425;50.454;30.466;2023-08-06T13:48:30;9.82;;;4.28;;
35312;SDS011;21425;50.454;30.466;2023-08-06T13:50:55;6.55;;;3.97;;
35312;SDS011;21425;50.454;30.466;2023-08-06T13:53:21;11.40;;;4.05;;
35312;SDS011;21425;50.454;30.466;2023-08-06T13:55:47;5.75;;;3.90;;
35312;SDS011;21425;50.454;30.466;2023-08-06T13:58:13;6.28;;;4.20;;
35312;SDS011;21425;50.454;30.466;2023-08-06T14:00:39;7.97;;;3.80;;
35312;SDS011;21425;50.454;30.466;2023-08-06T14:03:04;6.95;;;3.88;;
35312;SDS011;21425;50.454;30.466;2023-08-06T14:05:30;8.15;;;4.00;;
35312;SDS011;21425;50.454;30.466;2023-08-06T14:07:56;9.07;;;3.85;;
35312;SDS011;21425;50.454;30.466;2023-08-06T14:10:22;8.43;;;4.20;;
35312;SDS011;21425;50.454;30.466;2023-08-06T14:12:47;8.05;;;4.18;;
35312;SDS011;21425;50.454;30.466;2023-08-06T14:15:14;10.38;;;4.18;;
35312;SDS011;21425;50.454;30.466;2023-08-06T14:17:39;6.40;;;3.83;;
35312;SDS011;21425;50.454;30.466;2023-08-06T14:20:06;11.43;;;3.60;;
35312;SDS011;21425;50.454;30.466;2023-08-06T14:22:34;5.43;;;3.80;;
35312;SDS011;21425;50.454;30.466;2023-08-06T14:24:59;10.98;;;4.40;;
35312;SDS011;21425;50.454;30.466;2023-08-06T14:27:25;7.85;;;4.18;;
35312;SDS011;21425;50.454;30.466;2023-08-06T14:29:51;10.35;;;4.70;;
35312;SDS011;21425;50.454;30.466;2023-08-06T14:32:17;7.88;;;4.07;;